Time;durP1;ratioP1;P1;durP2;ratioP2;P2;SDS_P1;SDS_P2;PMS_P1;PMS_P2;Temp;Humidity;BMP_temperature;BMP_pressure;BME280_temperature;BME280_humidity;BME280_pressure;Samples;Min_cycle;Max_cycle;Signal;HPM_P1;HPM_P2
2021/06/19 00:01:15;;;;;;;7.28;5.10;;;22.00;80.00;;;;;;5174671;27;20443;-91
2021/06/19 00:03:41;;;;;;;7.63;5.43;;;22.00;80.40;;;;;;5175309;27;20876;-90
2021/06/19 00:06:06;;;;;;;8.25;5.60;;;21.90;80.80;;;;;;5159978;27;20054;-91
2021/06/19 00:08:32;;;;;;;7.00;5.20;;;21.90;80.60;;;;;;5153704;27;20051;-91
2021/06/19 00:10:58;;;;;;;7.63;4.88;;;21.90;81.00;;;;;;5154773;27;20054;-92
2021/06/19 00:13:24;;;;;;;7.38;5.10;;;21.80;80.80;;;;;;5153942;27;20047;-90
2021/06/19 00:15:50;;;;;;;9.15;5.75;;;21.90;81.20;;;;;;5153947;27;20473;-91
2021/06/19 00:18:16;;;;;;;8.48;5.45;;;21.80;81.30;;;;;;5154455;27;20053;-91
2021/06/19 00:20:42;;;;;;;8.10;5.60;;;21.80;81.40;;;;;;5154019;27;20108;-91
2021/06/19 00:23:07;;;;;;;6.97;5.55;;;21.80;81.50;;;;;;5153781;27;20038;-91
2021/06/19 00:25:33;;;;;;;8.30;5.72;;;21.80;80.90;;;;;;5154362;27;20043;-92
2021/06/19 00:27:59;;;;;;;8.13;5.60;;;21.80;81.10;;;;;;5167607;27;20454;-92
2021/06/19 00:30:25;;;;;;;9.43;7.03;;;21.70;81.30;;;;;;5174464;27;20477;-92
2021/06/19 00:32:51;;;;;;;9.00;5.55;;;21.70;81.40;;;;;;5175034;27;20052;-90
2021/06/19 00:35:17;;;;;;;12.32;7.47;;;21.70;81.10;;;;;;5166246;27;20043;-91
2021/06/19 00:37:44;;;;;;;8.40;5.50;;;21.60;81.50;;;;;;5153023;27;20475;-89
2021/06/19 00:40:13;;;;;;;8.73;6.45;;;21.60;82.00;;;;;;5154036;27;20520;-92
2021/06/19 00:42:39;;;;;;;11.63;9.38;;;21.60;81.90;;;;;;5153393;27;20122;-90
2021/06/19 00:45:08;;;;;;;7.97;6.20;;;21.50;83.50;;;;;;5154284;27;20438;-90
2021/06/19 00:47:38;;;;;;;7.38;5.82;;;21.50;82.90;;;;;;5153632;27;20443;-89
2021/06/19 00:50:05;;;;;;;8.13;5.35;;;21.40;82.30;;;;;;5153608;27;20099;-91
2021/06/19 00:52:31;;;;;;;9.35;6.75;;;21.40;82.20;;;;;;5153845;27;20058;-91
2021/06/19 00:54:56;;;;;;;10.65;9.55;;;21.40;82.50;;;;;;5161349;27;20054;-89
2021/06/19 00:57:22;;;;;;;11.20;8.45;;;21.30;84.10;;;;;;5173545;27;20046;-90
2021/06/19 00:59:48;;;;;;;7.75;6.05;;;21.30;84.00;;;;;;5174774;27;20087;-89
2021/06/19 01:02:13;;;;;;;12.38;7.00;;;21.30;83.40;;;;;;5176355;27;20046;-90
2021/06/19 01:04:39;;;;;;;12.25;9.25;;;21.20;82.70;;;;;;5178200;27;20042;-89
2021/06/19 01:07:05;;;;;;;9.05;6.60;;;21.20;83.10;;;;;;5178720;27;20137;-91
2021/06/19 01:09:31;;;;;;;11.98;9.20;;;21.20;82.90;;;;;;5178707;27;20081;-90
2021/06/19 01:11:56;;;;;;;9.07;7.00;;;21.10;83.10;;;;;;5177925;27;20046;-91
2021/06/19 01:14:22;;;;;;;12.75;9.73;;;21.10;83.10;;;;;;5173035;27;20050;-90
2021/06/19 01:16:49;;;;;;;14.52;11.50;;;21.10;83.90;;;;;;5157796;27;20046;-88
2021/06/19 01:19:16;;;;;;;15.82;13.07;;;21.10;84.90;;;;;;5156913;27;20077;-89
2021/06/19 01:21:42;;;;;;;15.68;12.68;;;21.00;86.20;;;;;;5157404;27;20057;-88
2021/06/19 01:24:16;;;;;;;13.85;12.07;;;21.00;86.90;;;;;;5157509;27;20122;-89
2021/06/19 01:26:43;;;;;;;12.05;9.93;;;21.00;87.00;;;;;;5156392;27;20054;-89
2021/06/19 01:29:09;;;;;;;15.05;11.77;;;21.00;86.10;;;;;;5157643;27;20043;-90
2021/06/19 01:31:38;;;;;;;10.30;8.55;;;20.90;86.30;;;;;;5158211;27;20506;-89
2021/06/19 01:34:03;;;;;;;14.50;13.00;;;20.90;85.70;;;;;;5156241;27;20482;-88
2021/06/19 01:36:29;;;;;;;15.70;11.88;;;20.90;86.30;;;;;;5156961;27;20046;-88
2021/06/19 01:38:55;;;;;;;19.27;13.32;;;20.90;86.20;;;;;;5156474;27;20050;-89
2021/06/19 01:41:24;;;;;;;17.08;13.25;;;20.80;86.70;;;;;;5157309;27;20083;-88
2021/06/19 01:44:06;;;;;;;12.50;10.65;;;20.80;87.10;;;;;;5157247;27;20042;-88
2021/06/19 01:46:33;;;;;;;14.38;11.98;;;20.80;86.20;;;;;;5156239;27;20130;-89
2021/06/19 01:48:59;;;;;;;14.52;11.60;;;20.80;86.80;;;;;;5157216;27;20051;-89
2021/06/19 01:51:26;;;;;;;14.25;10.65;;;20.80;86.70;;;;;;5156931;27;20092;-89
2021/06/19 01:53:55;;;;;;;11.68;9.25;;;20.70;85.70;;;;;;5156157;27;20042;-90
2021/06/19 01:56:21;;;;;;;10.38;8.98;;;20.80;85.20;;;;;;5156973;27;20129;-89
2021/06/19 01:58:47;;;;;;;16.63;13.23;;;20.70;85.00;;;;;;5156989;27;20050;-89
2021/06/19 02:01:15;;;;;;;10.80;9.57;;;20.70;85.50;;;;;;5167536;27;20100;-90
2021/06/19 02:03:41;;;;;;;22.83;16.42;;;20.70;85.20;;;;;;5173265;27;20046;-89
2021/06/19 02:06:08;;;;;;;14.50;10.25;;;20.70;86.90;;;;;;5177363;27;20081;-89
2021/06/19 02:08:35;;;;;;;12.27;10.50;;;20.70;86.20;;;;;;5176702;27;20050;-89
2021/06/19 02:11:02;;;;;;;16.45;14.07;;;20.70;85.60;;;;;;5177482;27;20065;-87
2021/06/19 02:13:28;;;;;;;13.45;10.75;;;20.70;86.40;;;;;;5174455;27;20117;-89
2021/06/19 02:15:56;;;;;;;12.98;11.45;;;20.70;86.00;;;;;;5176942;27;20139;-90
2021/06/19 02:18:22;;;;;;;19.52;17.42;;;20.70;85.60;;;;;;5176943;27;20417;-88
2021/06/19 02:20:52;;;;;;;18.50;14.93;;;20.70;86.90;;;;;;5167595;27;20039;-89
2021/06/19 02:23:21;;;;;;;21.13;16.95;;;20.70;86.80;;;;;;5165795;27;20049;-88
2021/06/19 02:25:51;;;;;;;16.98;14.23;;;20.60;87.70;;;;;;5168299;27;20038;-89
2021/06/19 02:28:27;;;;;;;14.27;11.68;;;20.60;87.50;;;;;;5167885;27;20751;-89
2021/06/19 02:30:55;;;;;;;16.60;13.65;;;20.60;86.40;;;;;;5167546;27;20046;-89
2021/06/19 02:33:21;;;;;;;12.27;10.98;;;20.60;86.70;;;;;;5165199;27;20041;-89
2021/06/19 02:35:50;;;;;;;18.98;16.00;;;20.50;85.40;;;;;;5164510;27;20050;-88
2021/06/19 02:38:16;;;;;;;14.10;12.55;;;20.60;86.70;;;;;;5165129;27;20043;-89
2021/06/19 02:40:43;;;;;;;17.73;14.68;;;20.50;87.00;;;;;;5165585;27;20046;-91
2021/06/19 02:43:10;;;;;;;13.10;10.45;;;20.50;88.30;;;;;;5163964;27;20378;-89
2021/06/19 02:45:36;;;;;;;20.85;17.27;;;20.50;86.30;;;;;;5165006;27;20046;-89
2021/06/19 02:48:02;;;;;;;19.40;14.52;;;20.50;88.20;;;;;;5164048;27;20473;-90
2021/06/19 02:50:31;;;;;;;15.60;13.82;;;20.50;87.70;;;;;;5164831;27;20129;-90
2021/06/19 02:52:58;;;;;;;15.50;12.63;;;20.50;87.60;;;;;;5166132;27;20057;-89
2021/06/19 02:55:28;;;;;;;16.20;13.95;;;20.50;87.60;;;;;;5165289;27;20050;-89
2021/06/19 02:57:55;;;;;;;16.02;13.90;;;20.50;88.50;;;;;;5162248;27;20070;-90
2021/06/19 03:00:22;;;;;;;15.65;13.55;;;20.50;88.40;;;;;;5163561;27;20035;-88
2021/06/19 03:02:48;;;;;;;16.35;13.48;;;20.50;89.00;;;;;;5166982;27;20121;-89
2021/06/19 03:05:16;;;;;;;17.88;14.00;;;20.50;89.10;;;;;;5164638;27;20046;-88
2021/06/19 03:07:43;;;;;;;13.52;11.98;;;20.50;89.90;;;;;;5164814;27;20525;-89
2021/06/19 03:10:15;;;;;;;17.02;13.52;;;20.50;89.60;;;;;;5166348;27;20103;-87
2021/06/19 03:12:41;;;;;;;18.15;13.38;;;20.50;90.00;;;;;;5165503;27;20066;-87
2021/06/19 03:15:08;;;;;;;15.00;12.68;;;20.40;90.10;;;;;;5163987;27;20070;-88
2021/06/19 03:17:34;;;;;;;19.65;13.55;;;20.40;89.80;;;;;;5165665;27;20822;-89
2021/06/19 03:20:00;;;;;;;18.60;13.15;;;20.40;90.10;;;;;;5164002;27;20435;-88
2021/06/19 03:22:27;;;;;;;15.75;12.20;;;20.40;90.10;;;;;;5166131;27;20048;-88
2021/06/19 03:24:52;;;;;;;15.85;12.52;;;20.40;89.80;;;;;;5165729;27;20080;-89
2021/06/19 03:27:18;;;;;;;14.95;12.50;;;20.30;89.90;;;;;;5164289;27;20061;-87
2021/06/19 03:29:45;;;;;;;13.68;11.50;;;20.40;89.90;;;;;;5165012;27;20073;-88
2021/06/19 03:32:11;;;;;;;12.95;11.13;;;20.30;89.80;;;;;;5165146;27;20045;-87
2021/06/19 03:34:37;;;;;;;13.55;11.82;;;20.30;89.20;;;;;;5169418;27;20050;-88
2021/06/19 03:37:04;;;;;;;16.60;12.82;;;20.30;89.30;;;;;;5175787;27;20039;-88
2021/06/19 03:39:32;;;;;;;12.63;10.27;;;20.30;90.00;;;;;;5174855;27;20049;-87
2021/06/19 03:41:58;;;;;;;15.80;12.27;;;20.30;89.10;;;;;;5175936;27;20062;-90
2021/06/19 03:44:26;;;;;;;16.50;12.27;;;20.30;90.00;;;;;;5175603;27;20050;-88
2021/06/19 03:46:52;;;;;;;15.13;11.15;;;20.30;90.20;;;;;;5175212;27;20129;-88
2021/06/19 03:49:19;;;;;;;15.02;12.52;;;20.30;90.00;;;;;;5175709;27;20484;-87
2021/06/19 03:51:46;;;;;;;13.20;10.88;;;20.30;90.10;;;;;;5175484;27;20042;-88
2021/06/19 03:54:12;;;;;;;14.98;11.32;;;20.30;89.40;;;;;;5174973;27;20451;-87
2021/06/19 03:56:38;;;;;;;12.45;10.80;;;20.30;89.70;;;;;;5175506;27;20065;-88
2021/06/19 03:59:04;;;;;;;11.57;9.95;;;20.20;89.10;;;;;;5175805;27;20470;-87
2021/06/19 04:01:30;;;;;;;12.98;11.50;;;20.20;88.80;;;;;;5140920;27;20042;-90
2021/06/19 04:03:55;;;;;;;12.50;11.20;;;20.20;89.50;;;;;;5154884;27;20043;-87
2021/06/19 04:06:21;;;;;;;10.30;9.00;;;20.20;89.80;;;;;;5153135;27;20058;-87
2021/06/19 04:08:47;;;;;;;13.05;10.75;;;20.20;88.40;;;;;;5152665;27;20051;-87
2021/06/19 04:11:14;;;;;;;11.45;8.43;;;20.20;88.80;;;;;;5158279;27;20063;-87
2021/06/19 04:13:41;;;;;;;11.88;9.45;;;20.20;88.10;;;;;;5172822;27;20122;-87
2021/06/19 04:16:09;;;;;;;11.52;8.90;;;20.20;88.10;;;;;;5175120;27;20042;-88
2021/06/19 04:18:35;;;;;;;13.60;10.75;;;20.20;88.00;;;;;;5175088;27;20049;-87
2021/06/19 04:21:00;;;;;;;11.52;9.73;;;20.20;89.20;;;;;;5160723;27;20471;-87
2021/06/19 04:23:26;;;;;;;9.90;8.88;;;20.20;88.70;;;;;;5154175;27;20042;-88
2021/06/19 04:25:52;;;;;;;12.05;9.55;;;20.20;88.40;;;;;;5154361;27;20125;-89
2021/06/19 04:28:17;;;;;;;10.68;8.73;;;20.20;88.90;;;;;;5153858;27;20497;-89
2021/06/19 04:30:43;;;;;;;13.73;10.32;;;20.20;88.40;;;;;;5153791;27;20039;-86
2021/06/19 04:33:08;;;;;;;15.05;10.25;;;20.20;88.90;;;;;;5154035;27;20047;-88
2021/06/19 04:35:34;;;;;;;9.27;8.32;;;20.30;89.10;;;;;;5153272;27;20046;-90
2021/06/19 04:38:00;;;;;;;10.27;8.80;;;20.30;88.80;;;;;;5157600;27;20058;-89
2021/06/19 04:40:37;;;;;;;13.48;10.50;;;20.30;88.80;;;;;;5168808;27;20039;-91
2021/06/19 04:43:08;;;;;;;12.93;11.52;;;20.30;89.80;;;;;;5178953;27;20513;-90
2021/06/19 04:45:37;;;;;;;12.60;8.95;;;20.30;90.40;;;;;;5179267;27;20042;-91
2021/06/19 04:48:05;;;;;;;11.75;9.40;;;20.30;90.00;;;;;;5179570;27;20042;-91
2021/06/19 04:50:32;;;;;;;15.07;10.70;;;20.30;89.50;;;;;;5178177;27;20038;-90
2021/06/19 04:52:59;;;;;;;13.30;10.20;;;20.30;90.10;;;;;;5159358;27;20050;-88
2021/06/19 04:55:25;;;;;;;12.77;11.15;;;20.30;90.10;;;;;;5158698;27;20046;-92
2021/06/19 04:57:56;;;;;;;14.43;12.90;;;20.30;90.20;;;;;;5158325;27;20496;-90
2021/06/19 05:00:23;;;;;;;17.85;13.75;;;20.30;90.70;;;;;;5159471;27;20034;-92
2021/06/19 05:02:49;;;;;;;9.57;8.25;;;20.30;90.80;;;;;;5157473;27;20553;-91
2021/06/19 05:05:15;;;;;;;12.20;8.95;;;20.40;90.10;;;;;;5158080;27;20038;-91
2021/06/19 05:07:41;;;;;;;19.27;14.57;;;20.40;89.20;;;;;;5157922;27;20112;-91
2021/06/19 05:10:08;;;;;;;14.80;11.70;;;20.40;90.40;;;;;;5157511;27;20053;-89
2021/06/19 05:12:35;;;;;;;16.80;12.27;;;20.40;90.50;;;;;;5157540;27;20486;-87
2021/06/19 05:15:03;;;;;;;21.20;15.35;;;20.40;90.50;;;;;;5156108;27;20049;-89
2021/06/19 05:17:29;;;;;;;20.00;15.18;;;20.40;90.90;;;;;;5155831;27;20133;-90
2021/06/19 05:19:55;;;;;;;15.02;12.07;;;20.40;91.00;;;;;;5163509;27;20038;-91
2021/06/19 05:22:22;;;;;;;16.45;13.48;;;20.40;90.70;;;;;;5178558;27;20047;-89
2021/06/19 05:24:47;;;;;;;15.30;13.70;;;20.40;90.60;;;;;;5178239;27;20042;-91
2021/06/19 05:27:13;;;;;;;11.77;10.52;;;20.40;90.50;;;;;;5179300;27;20045;-91
2021/06/19 05:29:39;;;;;;;22.00;16.55;;;20.40;90.20;;;;;;5178817;27;20047;-90
2021/06/19 05:32:05;;;;;;;20.50;15.00;;;20.40;90.70;;;;;;5157330;27;20054;-89
2021/06/19 05:34:31;;;;;;;22.52;17.60;;;20.40;90.70;;;;;;5156875;27;20042;-89
2021/06/19 05:36:57;;;;;;;22.15;17.83;;;20.40;90.90;;;;;;5157572;27;20043;-89
2021/06/19 05:39:22;;;;;;;19.70;16.67;;;20.40;91.20;;;;;;5157061;27;20451;-90
2021/06/19 05:41:48;;;;;;;13.43;12.07;;;20.40;91.20;;;;;;5157735;27;20406;-88
2021/06/19 05:44:14;;;;;;;17.58;15.52;;;20.40;90.50;;;;;;5157870;27;20065;-91
2021/06/19 05:46:39;;;;;;;21.65;17.88;;;20.40;90.70;;;;;;5157013;27;20042;-93
2021/06/19 05:49:05;;;;;;;16.33;14.23;;;20.40;90.90;;;;;;5157828;27;20047;-91
2021/06/19 05:51:32;;;;;;;20.30;16.83;;;20.40;90.60;;;;;;5158096;27;20077;-91
2021/06/19 05:53:57;;;;;;;21.67;17.60;;;20.40;90.90;;;;;;5157969;27;20058;-90
2021/06/19 05:56:24;;;;;;;16.00;12.75;;;20.40;91.00;;;;;;5158831;27;20394;-92
2021/06/19 05:58:49;;;;;;;21.38;15.00;;;20.40;90.60;;;;;;5160066;27;20047;-92
2021/06/19 06:01:15;;;;;;;21.80;16.55;;;20.50;90.60;;;;;;5178788;27;20043;-91
2021/06/19 06:03:41;;;;;;;19.63;16.60;;;20.50;90.70;;;;;;5179938;27;20561;-91
2021/06/19 06:06:06;;;;;;;20.10;17.17;;;20.50;90.60;;;;;;5178652;27;20081;-92
2021/06/19 06:08:32;;;;;;;25.63;18.92;;;20.50;90.70;;;;;;5160288;27;20486;-93
2021/06/19 06:10:58;;;;;;;19.92;16.17;;;20.50;91.00;;;;;;5172945;27;20038;-90
2021/06/19 06:13:23;;;;;;;23.63;19.08;;;20.60;90.80;;;;;;5177995;27;20054;-91
2021/06/19 06:15:49;;;;;;;21.88;18.02;;;20.60;91.00;;;;;;5172032;27;20131;-92
2021/06/19 06:18:15;;;;;;;23.75;18.38;;;20.60;91.10;;;;;;5157986;27;20046;-88
2021/06/19 06:20:41;;;;;;;23.33;18.48;;;20.60;91.20;;;;;;5171925;27;20086;-92
2021/06/19 06:23:06;;;;;;;20.52;17.25;;;20.70;91.40;;;;;;5176000;27;20129;-91
2021/06/19 06:25:32;;;;;;;21.35;16.17;;;20.70;91.40;;;;;;5171377;27;20050;-90
2021/06/19 06:27:57;;;;;;;19.77;16.50;;;20.70;91.30;;;;;;5165029;27;20069;-92
2021/06/19 06:30:23;;;;;;;17.67;15.68;;;20.70;91.20;;;;;;5175066;27;20043;-90
2021/06/19 06:32:50;;;;;;;17.77;14.38;;;20.80;91.10;;;;;;5169444;27;20051;-93
2021/06/19 06:35:15;;;;;;;18.05;15.25;;;20.80;90.70;;;;;;5157263;27;20070;-92
2021/06/19 06:37:41;;;;;;;17.75;15.13;;;20.80;90.60;;;;;;5163355;27;20134;-92
2021/06/19 06:40:10;;;;;;;18.83;16.00;;;20.80;90.50;;;;;;5177591;27;20053;-91
2021/06/19 06:42:39;;;;;;;19.45;15.75;;;20.90;90.80;;;;;;5177237;27;20468;-90
2021/06/19 06:45:07;;;;;;;19.88;16.35;;;20.90;90.60;;;;;;5177768;27;20053;-91
2021/06/19 06:47:32;;;;;;;19.23;16.77;;;21.00;90.60;;;;;;5175630;27;20157;-91
2021/06/19 06:49:58;;;;;;;21.25;15.60;;;21.00;90.50;;;;;;5176671;27;20149;-87
2021/06/19 06:52:23;;;;;;;22.60;16.95;;;21.00;90.40;;;;;;5177323;27;20046;-91
2021/06/19 06:54:49;;;;;;;22.50;17.42;;;21.00;90.20;;;;;;5158661;27;20405;-91
2021/06/19 06:57:16;;;;;;;22.58;16.42;;;21.10;90.30;;;;;;5174136;27;20046;-87
2021/06/19 06:59:41;;;;;;;20.13;15.80;;;21.20;90.30;;;;;;5165818;27;20153;-86
2021/06/19 07:02:07;;;;;;;22.83;16.95;;;21.30;90.10;;;;;;5158413;27;20695;-89
2021/06/19 07:04:33;;;;;;;21.85;16.63;;;21.30;89.90;;;;;;5154503;27;20039;-83
2021/06/19 07:06:58;;;;;;;24.23;16.38;;;21.40;89.60;;;;;;5155600;27;20055;-82
2021/06/19 07:09:24;;;;;;;23.20;16.63;;;21.50;88.90;;;;;;5154779;27;20046;-82
2021/06/19 07:11:49;;;;;;;20.83;15.75;;;21.50;88.40;;;;;;5164261;27;20441;-88
2021/06/19 07:14:16;;;;;;;24.60;17.52;;;21.50;88.00;;;;;;5167468;27;20052;-87
2021/06/19 07:16:41;;;;;;;22.98;17.20;;;21.50;87.70;;;;;;5174928;27;20042;-85
2021/06/19 07:19:07;;;;;;;23.00;15.63;;;21.60;87.60;;;;;;5176845;27;20447;-89
2021/06/19 07:21:32;;;;;;;22.05;16.20;;;21.60;87.30;;;;;;5176103;27;20047;-86
2021/06/19 07:23:59;;;;;;;24.92;17.35;;;21.60;87.30;;;;;;5174854;27;20382;-87
2021/06/19 07:26:25;;;;;;;23.27;16.77;;;21.60;87.10;;;;;;5161373;27;20466;-85
2021/06/19 07:28:50;;;;;;;24.33;16.02;;;21.60;86.70;;;;;;5155400;27;20053;-85
2021/06/19 07:31:16;;;;;;;21.45;15.70;;;21.60;86.60;;;;;;5155574;27;20076;-88
2021/06/19 07:33:42;;;;;;;26.08;17.35;;;21.60;86.40;;;;;;5157996;27;20057;-86
2021/06/19 07:36:09;;;;;;;24.90;16.30;;;21.50;86.20;;;;;;5167128;27;20042;-89
2021/06/19 07:38:35;;;;;;;27.58;17.38;;;21.60;86.00;;;;;;5161229;27;20074;-86
2021/06/19 07:41:00;;;;;;;24.33;16.95;;;21.50;85.80;;;;;;5162637;27;20162;-86
2021/06/19 07:43:26;;;;;;;24.77;16.95;;;21.50;85.80;;;;;;5159389;27;20106;-85
2021/06/19 07:45:52;;;;;;;24.92;16.75;;;21.50;85.70;;;;;;5156430;27;20047;-87
2021/06/19 07:48:18;;;;;;;25.60;17.52;;;21.50;85.80;;;;;;5175810;27;20435;-86
2021/06/19 07:50:44;;;;;;;25.45;17.92;;;21.40;86.00;;;;;;5169118;27;20039;-85
2021/06/19 07:53:10;;;;;;;20.42;15.32;;;21.40;86.00;;;;;;5154395;27;20042;-88
2021/06/19 07:55:36;;;;;;;24.70;17.55;;;21.40;86.20;;;;;;5154762;27;20049;-86
2021/06/19 07:58:04;;;;;;;24.60;17.52;;;21.40;86.30;;;;;;5155053;27;20099;-89
2021/06/19 08:00:30;;;;;;;23.75;17.98;;;21.40;86.40;;;;;;5154378;27;20375;-91
2021/06/19 08:02:57;;;;;;;24.00;16.92;;;21.30;86.50;;;;;;5160612;27;20132;-89
2021/06/19 08:05:23;;;;;;;25.33;17.40;;;21.30;86.50;;;;;;5166457;27;20091;-90
2021/06/19 08:07:49;;;;;;;19.70;15.98;;;21.40;86.40;;;;;;5172546;27;20053;-86
2021/06/19 08:10:15;;;;;;;23.45;18.27;;;21.30;86.50;;;;;;5164952;27;20121;-87
2021/06/19 08:12:41;;;;;;;25.48;18.60;;;21.30;86.60;;;;;;5162174;27;20046;-87
2021/06/19 08:15:07;;;;;;;25.10;17.98;;;21.30;86.70;;;;;;5175701;27;20382;-88
2021/06/19 08:17:33;;;;;;;21.08;16.05;;;21.30;86.70;;;;;;5175276;27;20054;-87
2021/06/19 08:19:58;;;;;;;22.95;17.13;;;21.30;86.70;;;;;;5175060;27;20647;-88
2021/06/19 08:22:24;;;;;;;27.17;19.27;;;21.30;86.90;;;;;;5175544;27;20103;-89
2021/06/19 08:24:49;;;;;;;27.55;18.40;;;21.40;87.80;;;;;;5175536;27;20065;-88
2021/06/19 08:27:22;;;;;;;20.83;15.98;;;21.40;87.70;;;;;;5174635;27;20053;-88
2021/06/19 08:29:49;;;;;;;23.57;16.57;;;21.50;87.00;;;;;;5175744;27;20046;-89
2021/06/19 08:32:16;;;;;;;24.13;16.65;;;21.50;86.40;;;;;;5175844;27;20794;-89
2021/06/19 08:34:42;;;;;;;24.30;16.42;;;21.60;86.30;;;;;;5174188;27;20527;-88
2021/06/19 08:37:08;;;;;;;21.30;15.20;;;21.70;86.40;;;;;;5175911;27;20137;-92
2021/06/19 08:39:34;;;;;;;18.52;14.63;;;21.70;85.80;;;;;;5175652;27;20521;-90
2021/06/19 08:42:00;;;;;;;19.48;14.55;;;21.80;85.40;;;;;;5174895;27;20071;-87
2021/06/19 08:44:27;;;;;;;19.45;14.30;;;21.90;85.30;;;;;;5175208;27;20053;-90
2021/06/19 08:46:54;;;;;;;18.92;14.50;;;22.00;85.30;;;;;;5175782;27;20125;-88
2021/06/19 08:49:21;;;;;;;17.00;12.07;;;22.00;84.60;;;;;;5174541;27;20548;-90
2021/06/19 08:51:47;;;;;;;17.23;13.07;;;22.10;83.80;;;;;;5174880;27;20512;-87
2021/06/19 08:54:14;;;;;;;18.83;13.23;;;22.10;83.60;;;;;;5172875;27;20054;-86
2021/06/19 08:56:41;;;;;;;17.27;13.13;;;22.20;83.30;;;;;;5158595;27;20082;-91
2021/06/19 08:59:10;;;;;;;16.67;12.07;;;22.20;83.20;;;;;;5161902;27;20469;-91
2021/06/19 09:01:38;;;;;;;16.65;11.18;;;22.30;82.80;;;;;;5145375;27;20052;-89
2021/06/19 09:04:05;;;;;;;19.30;11.70;;;22.30;82.40;;;;;;5161917;27;20038;-87
2021/06/19 09:06:36;;;;;;;14.38;10.60;;;22.40;82.40;;;;;;5163203;27;20522;-90
2021/06/19 09:09:09;;;;;;;17.17;12.07;;;22.40;82.40;;;;;;5162604;27;20038;-92
2021/06/19 09:11:48;;;;;;;16.83;11.95;;;22.50;82.20;;;;;;5164532;27;20046;-86
2021/06/19 09:14:25;;;;;;;17.77;11.63;;;22.50;83.00;;;;;;5163560;27;20453;-87
2021/06/19 09:17:00;;;;;;;17.20;11.60;;;22.60;82.30;;;;;;5162265;27;20485;-89
2021/06/19 09:19:39;;;;;;;17.70;13.43;;;22.60;81.40;;;;;;5163917;27;20042;-87
2021/06/19 09:22:22;;;;;;;17.98;13.68;;;22.70;81.70;;;;;;5154318;27;20099;-91
2021/06/19 09:24:50;;;;;;;16.95;13.23;;;22.70;82.20;;;;;;5161480;27;20103;-88
2021/06/19 09:27:36;;;;;;;17.25;12.82;;;22.70;81.60;;;;;;5167173;27;20490;-91
2021/06/19 09:30:20;;;;;;;19.25;13.15;;;22.70;81.50;;;;;;5166917;27;20041;-89
2021/06/19 09:32:48;;;;;;;15.40;12.43;;;22.80;82.10;;;;;;5165690;27;20049;-86
2021/06/19 09:35:31;;;;;;;18.92;13.77;;;22.80;82.20;;;;;;5166462;27;20049;-87
2021/06/19 09:38:00;;;;;;;16.90;12.75;;;22.90;81.00;;;;;;5166395;27;20046;-86
2021/06/19 09:40:39;;;;;;;16.67;13.25;;;22.90;80.90;;;;;;5164970;27;20047;-87
2021/06/19 09:43:11;;;;;;;17.48;14.40;;;22.90;81.40;;;;;;5165636;27;20049;-90
2021/06/19 09:45:40;;;;;;;19.27;15.52;;;22.90;81.10;;;;;;5164863;27;20557;-86
2021/06/19 09:48:23;;;;;;;18.10;12.70;;;23.00;80.70;;;;;;5165502;27;20397;-86
2021/06/19 09:51:13;;;;;;;19.50;15.85;;;23.00;80.90;;;;;;5165846;27;20069;-91
2021/06/19 09:53:40;;;;;;;18.20;15.23;;;22.90;80.70;;;;;;5167140;27;20099;-92
2021/06/19 09:56:07;;;;;;;18.50;15.63;;;23.00;81.40;;;;;;5171842;27;20423;-89
2021/06/19 09:58:44;;;;;;;18.58;14.77;;;23.00;81.20;;;;;;5176744;27;20486;-86
2021/06/19 10:01:17;;;;;;;21.48;15.88;;;23.00;81.70;;;;;;5178001;27;20106;-88
2021/06/19 10:03:56;;;;;;;20.80;15.98;;;23.00;81.80;;;;;;5177899;27;20132;-84
2021/06/19 10:06:27;;;;;;;21.75;16.05;;;23.10;81.40;;;;;;5176799;27;20069;-87
2021/06/19 10:08:54;;;;;;;20.30;15.30;;;23.10;81.10;;;;;;5177956;27;20042;-88
2021/06/19 10:11:23;;;;;;;19.10;15.75;;;23.10;81.10;;;;;;5177992;27;20485;-90
2021/06/19 10:13:49;;;;;;;17.92;14.95;;;23.20;79.90;;;;;;5158571;27;20049;-86
2021/06/19 10:16:16;;;;;;;23.80;14.77;;;23.20;80.00;;;;;;5156820;27;20464;-90
2021/06/19 10:18:44;;;;;;;21.40;15.82;;;23.20;80.40;;;;;;5156332;27;20085;-87
2021/06/19 10:21:12;;;;;;;18.63;15.63;;;23.20;79.90;;;;;;5156256;27;20541;-85
2021/06/19 10:23:39;;;;;;;17.88;15.13;;;23.20;79.60;;;;;;5158747;27;20057;-87
2021/06/19 10:26:05;;;;;;;17.38;14.35;;;23.20;79.10;;;;;;5167902;27;20082;-86
2021/06/19 10:28:33;;;;;;;18.23;14.10;;;23.20;78.30;;;;;;5175299;27;20077;-87
2021/06/19 10:30:59;;;;;;;16.25;14.52;;;23.20;78.70;;;;;;5175408;27;20044;-89
2021/06/19 10:33:30;;;;;;;15.30;12.73;;;23.20;78.60;;;;;;5167891;27;20042;-85
2021/06/19 10:36:01;;;;;;;15.48;12.00;;;23.10;79.40;;;;;;5176135;27;20070;-86
2021/06/19 10:38:27;;;;;;;12.80;11.15;;;23.20;79.60;;;;;;5176328;27;20390;-88
2021/06/19 10:41:01;;;;;;;13.60;11.88;;;23.20;79.40;;;;;;5176026;27;20057;-87
2021/06/19 10:43:29;;;;;;;14.60;12.07;;;23.20;79.70;;;;;;5167407;27;20130;-87
2021/06/19 10:45:58;;;;;;;14.70;12.30;;;23.10;79.50;;;;;;5158063;27;20099;-89
2021/06/19 10:48:35;;;;;;;12.95;11.45;;;23.10;80.00;;;;;;5155533;27;20046;-89
2021/06/19 10:51:22;;;;;;;13.38;12.07;;;23.00;79.90;;;;;;5156454;27;20573;-88
2021/06/19 10:54:06;;;;;;;13.35;11.95;;;23.00;80.10;;;;;;5170312;27;20046;-90
2021/06/19 10:57:01;;;;;;;12.93;11.52;;;23.00;80.60;;;;;;5176469;27;20048;-88
2021/06/19 10:59:32;;;;;;;15.38;12.68;;;23.00;80.30;;;;;;5154705;27;20459;-87
2021/06/19 11:02:02;;;;;;;15.00;12.68;;;23.10;80.60;;;;;;5177304;27;20098;-90
2021/06/19 11:04:40;;;;;;;14.60;12.20;;;23.20;80.30;;;;;;5177358;27;20428;-92
2021/06/19 11:07:07;;;;;;;15.30;12.65;;;23.20;80.50;;;;;;5178446;27;20046;-93
2021/06/19 11:09:44;;;;;;;13.65;11.18;;;23.20;80.10;;;;;;5178325;27;20099;-93
2021/06/19 11:12:16;;;;;;;14.73;11.40;;;23.30;80.20;;;;;;5167170;27;20046;-94
2021/06/19 11:14:42;;;;;;;13.27;11.68;;;23.30;80.20;;;;;;5168178;27;20055;-94
2021/06/19 11:17:15;;;;;;;13.10;10.55;;;23.40;79.70;;;;;;5157153;27;20047;-94
2021/06/19 11:19:48;;;;;;;12.60;11.18;;;23.40;79.80;;;;;;5165451;27;20053;-92
2021/06/19 11:22:24;;;;;;;12.75;11.45;;;23.30;79.70;;;;;;5178588;27;20050;-92
2021/06/19 11:25:20;;;;;;;11.73;10.52;;;23.40;79.40;;;;;;5177713;27;20046;-94
2021/06/19 11:27:54;;;;;;;12.85;10.20;;;23.40;79.40;;;;;;5179041;27;20050;-94
2021/06/19 11:30:35;;;;;;;12.75;10.70;;;23.40;79.50;;;;;;5178783;27;20057;-96
2021/06/19 11:33:15;;;;;;;12.77;10.52;;;23.40;79.20;;;;;;5178171;27;20046;-92
2021/06/19 11:35:49;;;;;;;12.57;10.77;;;23.40;78.90;;;;;;5178547;27;20053;-93
2021/06/19 11:38:16;;;;;;;13.52;11.18;;;23.50;78.90;;;;;;5179202;27;20161;-94
2021/06/19 11:40:42;;;;;;;12.60;10.15;;;23.50;79.00;;;;;;5178502;27;20098;-93
2021/06/19 11:43:09;;;;;;;14.52;10.02;;;23.40;78.90;;;;;;5178864;27;20054;-92
2021/06/19 11:45:36;;;;;;;15.00;10.00;;;23.50;78.70;;;;;;5178947;27;20042;-93
2021/06/19 11:48:04;;;;;;;11.35;10.02;;;23.50;78.80;;;;;;5162364;27;20050;-93
2021/06/19 11:50:31;;;;;;;10.60;9.50;;;23.40;78.40;;;;;;5188066;27;20102;-92
2021/06/19 11:52:56;;;;;;;12.40;9.65;;;23.30;78.70;;;;;;5189403;27;20058;-92
2021/06/19 11:55:22;;;;;;;12.10;10.05;;;23.30;79.30;;;;;;5185320;27;20042;-90
2021/06/19 11:57:56;;;;;;;12.80;10.35;;;23.30;80.00;;;;;;5185925;27;20099;-93
2021/06/19 12:00:22;;;;;;;11.68;9.98;;;23.30;79.90;;;;;;5187715;27;20042;-93
2021/06/19 12:02:54;;;;;;;10.48;9.43;;;23.40;80.10;;;;;;5179221;27;20098;-93
2021/06/19 12:05:20;;;;;;;11.18;9.95;;;23.40;79.50;;;;;;5177957;27;20038;-93
2021/06/19 12:07:46;;;;;;;12.57;10.70;;;23.50;79.50;;;;;;5177461;27;20075;-94
2021/06/19 12:10:23;;;;;;;12.88;10.07;;;23.50;79.00;;;;;;5179374;27;20067;-95
2021/06/19 12:12:57;;;;;;;12.10;10.00;;;23.60;78.40;;;;;;5177454;27;20050;-91
2021/06/19 12:15:25;;;;;;;11.68;9.75;;;23.60;77.70;;;;;;5176863;27;20038;-94
2021/06/19 12:17:51;;;;;;;11.18;9.15;;;23.60;77.60;;;;;;5178165;27;20450;-93
2021/06/19 12:20:23;;;;;;;10.75;9.52;;;23.60;78.40;;;;;;5177315;27;20074;-92
2021/06/19 12:22:49;;;;;;;10.20;9.10;;;23.70;77.70;;;;;;5177561;27;20072;-94
2021/06/19 12:25:35;;;;;;;10.88;9.77;;;23.70;78.30;;;;;;5177697;27;20042;-93
2021/06/19 12:28:02;;;;;;;11.25;8.93;;;23.70;77.00;;;;;;5176851;27;20413;-93
2021/06/19 12:30:28;;;;;;;11.15;9.88;;;23.70;77.30;;;;;;5178303;27;20061;-93
2021/06/19 12:32:55;;;;;;;10.30;8.68;;;23.80;76.60;;;;;;5176682;27;20051;-95
2021/06/19 12:35:21;;;;;;;13.05;9.75;;;23.80;77.20;;;;;;5176991;27;20046;-92